Time;durP1;ratioP1;P1;durP2;ratioP2;P2;SDS_P1;SDS_P2;PMS_P1;PMS_P2;Temp;Humidity;BMP_temperature;BMP_pressure;BME280_temperature;BME280_humidity;BME280_pressure;Samples;Min_cycle;Max_cycle;Signal;HPM_P1;HPM_P2
2021/01/04 00:01:44;;;;;;;18.40;12.50;;;4.50;87.40;;;;;;8295166;28;20453;-73
2021/01/04 00:05:57;;;;;;;20.80;14.23;;;4.50;87.50;;;;;;8294614;28;20543;-73
2021/01/04 00:10:31;;;;;;;18.83;12.10;;;4.40;87.70;;;;;;8328138;28;20528;-73
2021/01/04 00:14:54;;;;;;;23.07;13.23;;;4.40;88.10;;;;;;8313434;28;20511;-73
2021/01/04 00:19:40;;;;;;;26.90;15.50;;;4.30;87.60;;;;;;8306287;28;20453;-73
2021/01/04 00:24:05;;;;;;;25.30;16.23;;;4.30;87.80;;;;;;8297506;28;20472;-73
2021/01/04 00:28:12;;;;;;;24.30;15.07;;;4.30;88.50;;;;;;8322421;28;20444;-74
2021/01/04 00:32:22;;;;;;;25.00;14.73;;;4.20;88.30;;;;;;8319530;28;20509;-73
2021/01/04 00:36:30;;;;;;;25.43;15.27;;;4.20;89.00;;;;;;8307456;28;20443;-74
2021/01/04 00:41:03;;;;;;;30.03;16.50;;;4.20;88.60;;;;;;8310878;28;20445;-75
2021/01/04 00:45:17;;;;;;;22.30;14.10;;;4.20;88.80;;;;;;8310826;28;20476;-74
2021/01/04 00:49:31;;;;;;;34.80;16.90;;;4.20;89.00;;;;;;8315414;28;20472;-73
2021/01/04 00:53:37;;;;;;;26.10;16.37;;;4.30;89.10;;;;;;8308259;28;20467;-74
2021/01/04 00:57:59;;;;;;;24.20;16.77;;;4.30;88.90;;;;;;8307497;28;20484;-74
2021/01/04 01:02:24;;;;;;;23.13;15.37;;;4.30;89.00;;;;;;8304702;28;20455;-74
2021/01/04 01:06:55;;;;;;;25.10;15.00;;;4.30;89.10;;;;;;8324222;28;20943;-74
2021/01/04 01:11:10;;;;;;;24.80;16.30;;;4.40;88.80;;;;;;8332511;28;20530;-74
2021/01/04 01:15:27;;;;;;;34.90;17.93;;;4.30;88.70;;;;;;8304994;28;20522;-74
2021/01/04 01:19:49;;;;;;;31.50;16.43;;;4.30;88.80;;;;;;8311217;28;20515;-73
2021/01/04 01:23:50;;;;;;;28.30;17.73;;;4.30;88.90;;;;;;8311285;28;20475;-73
2021/01/04 01:28:41;;;;;;;23.10;14.87;;;4.30;88.80;;;;;;8300191;28;20515;-74
2021/01/04 01:32:47;;;;;;;25.00;15.70;;;4.30;88.70;;;;;;8254009;28;20549;-74
2021/01/04 01:37:11;;;;;;;22.83;15.57;;;4.30;88.90;;;;;;8257890;28;20471;-75
2021/01/04 01:41:38;;;;;;;20.50;13.60;;;4.40;88.90;;;;;;8307816;28;20453;-74
2021/01/04 01:45:38;;;;;;;26.37;14.33;;;4.50;88.80;;;;;;8307655;28;20969;-73
2021/01/04 01:49:57;;;;;;;24.13;16.43;;;4.50;88.60;;;;;;8316113;28;21029;-74
2021/01/04 01:54:28;;;;;;;23.70;16.13;;;4.50;88.30;;;;;;8312433;28;20195;-74
2021/01/04 01:58:50;;;;;;;21.63;15.40;;;4.50;88.30;;;;;;8307188;28;20488;-74
2021/01/04 02:03:09;;;;;;;27.50;16.40;;;4.40;88.50;;;;;;8308168;28;20539;-73
2021/01/04 02:07:41;;;;;;;28.80;16.43;;;4.40;88.60;;;;;;8313983;28;20440;-74
2021/01/04 02:11:56;;;;;;;24.47;15.20;;;4.50;88.60;;;;;;8310701;28;20472;-73
2021/01/04 02:16:11;;;;;;;27.50;15.10;;;4.50;88.50;;;;;;8302693;28;20449;-73
2021/01/04 02:20:30;;;;;;;26.27;15.27;;;4.50;88.30;;;;;;8303695;28;20456;-74
2021/01/04 02:24:35;;;;;;;22.93;14.50;;;4.50;88.30;;;;;;8317162;28;20560;-74
2021/01/04 02:28:51;;;;;;;27.80;16.27;;;4.50;88.30;;;;;;8314390;28;20457;-74
2021/01/04 02:32:59;;;;;;;22.63;15.50;;;4.50;88.40;;;;;;8312739;28;20848;-74
2021/01/04 02:37:04;;;;;;;20.27;14.43;;;4.60;88.40;;;;;;8309220;28;20822;-75
2021/01/04 02:41:05;;;;;;;29.37;15.47;;;4.50;88.20;;;;;;8305571;28;20442;-74
2021/01/04 02:45:32;;;;;;;27.63;15.83;;;4.60;88.10;;;;;;8307121;28;20477;-74
2021/01/04 02:49:54;;;;;;;27.07;16.10;;;4.60;87.90;;;;;;8310783;28;20510;-74
2021/01/04 02:54:21;;;;;;;23.00;15.40;;;4.50;87.70;;;;;;8322293;28;20819;-74
2021/01/04 02:59:04;;;;;;;22.90;13.80;;;4.50;87.80;;;;;;8316209;28;20485;-75
2021/01/04 03:03:05;;;;;;;25.37;15.87;;;4.50;87.90;;;;;;8317224;28;20467;-75
2021/01/04 03:07:13;;;;;;;21.37;14.83;;;4.50;88.00;;;;;;8316496;28;20476;-74
2021/01/04 03:11:18;;;;;;;34.60;15.97;;;4.60;88.10;;;;;;8313578;28;20481;-74
2021/01/04 03:16:11;;;;;;;23.23;15.10;;;4.60;88.00;;;;;;8312397;28;20456;-74
2021/01/04 03:20:18;;;;;;;24.17;15.20;;;4.60;88.60;;;;;;8308338;28;20524;-74
2021/01/04 03:24:23;;;;;;;19.20;13.63;;;4.50;87.90;;;;;;8311878;28;20477;-74
2021/01/04 03:28:29;;;;;;;22.03;15.43;;;4.50;87.90;;;;;;8298772;28;20597;-74
2021/01/04 03:32:32;;;;;;;29.57;16.33;;;4.50;87.80;;;;;;8311785;28;20504;-74
2021/01/04 03:36:35;;;;;;;21.20;14.07;;;4.40;87.80;;;;;;8302872;28;20537;-73
2021/01/04 03:40:36;;;;;;;24.97;14.43;;;4.40;87.90;;;;;;8315396;28;20486;-74
2021/01/04 03:44:36;;;;;;;27.17;14.73;;;4.50;88.00;;;;;;8315790;28;20464;-73
2021/01/04 03:48:40;;;;;;;24.57;14.53;;;4.40;87.90;;;;;;8318076;28;20217;-74
2021/01/04 03:52:42;;;;;;;23.23;13.90;;;4.40;88.00;;;;;;8303075;28;20199;-73
2021/01/04 03:56:43;;;;;;;21.53;14.80;;;4.40;88.20;;;;;;8312962;28;20489;-73
2021/01/04 04:00:44;;;;;;;22.53;14.10;;;4.50;88.30;;;;;;8314686;28;20489;-73
2021/01/04 04:04:49;;;;;;;25.10;14.40;;;4.50;88.30;;;;;;8298462;28;21060;-73
2021/01/04 04:08:53;;;;;;;21.43;14.27;;;4.50;88.10;;;;;;8311195;28;20284;-73
2021/01/04 04:12:55;;;;;;;21.83;13.37;;;4.40;88.00;;;;;;8302232;28;20466;-74
2021/01/04 04:16:58;;;;;;;17.67;11.83;;;4.40;87.90;;;;;;8309702;28;20921;-74
2021/01/04 04:21:02;;;;;;;18.53;11.37;;;4.40;87.90;;;;;;8322723;28;20462;-74
2021/01/04 04:25:05;;;;;;;18.90;10.93;;;4.40;87.90;;;;;;8309396;28;20485;-74
2021/01/04 04:29:06;;;;;;;19.33;11.90;;;4.30;87.90;;;;;;8316059;28;20453;-74
2021/01/04 04:33:08;;;;;;;19.97;13.30;;;4.30;87.80;;;;;;8295683;28;20467;-74
2021/01/04 04:37:09;;;;;;;19.37;12.77;;;4.30;87.90;;;;;;8319797;28;20190;-74
2021/01/04 04:41:38;;;;;;;21.00;13.20;;;4.30;88.00;;;;;;8307551;28;20465;-74
2021/01/04 04:45:40;;;;;;;17.50;12.97;;;4.30;88.00;;;;;;8311293;28;20281;-74
2021/01/04 04:49:57;;;;;;;19.90;12.90;;;4.30;87.90;;;;;;8316863;28;20463;-74
2021/01/04 04:54:10;;;;;;;20.43;15.50;;;4.30;87.90;;;;;;8311860;28;20458;-74
2021/01/04 04:58:32;;;;;;;17.97;12.97;;;4.30;88.00;;;;;;8320996;28;20474;-74
2021/01/04 05:03:07;;;;;;;20.30;12.00;;;4.30;87.90;;;;;;8309923;28;20451;-74
2021/01/04 05:07:26;;;;;;;19.33;13.37;;;4.30;88.00;;;;;;8309359;28;20452;-74
2021/01/04 05:11:33;;;;;;;25.87;13.47;;;4.20;88.00;;;;;;8313407;28;20449;-74
2021/01/04 05:15:55;;;;;;;20.73;12.67;;;4.20;88.00;;;;;;8309522;28;20452;-75
2021/01/04 05:20:14;;;;;;;20.30;11.97;;;4.20;88.00;;;;;;8312354;28;20493;-75
2021/01/04 05:24:33;;;;;;;20.83;11.83;;;4.20;88.20;;;;;;8307982;28;20485;-75
2021/01/04 05:29:16;;;;;;;16.87;12.67;;;4.10;88.30;;;;;;8304989;28;20475;-76
2021/01/04 05:33:52;;;;;;;16.63;11.40;;;4.20;88.30;;;;;;8320726;28;20467;-75
2021/01/04 05:38:04;;;;;;;17.57;11.37;;;4.10;88.20;;;;;;8309678;28;20956;-75
2021/01/04 05:42:22;;;;;;;18.37;11.30;;;4.10;88.30;;;;;;8306159;28;20445;-75
2021/01/04 05:46:25;;;;;;;17.50;12.40;;;4.10;88.50;;;;;;8309989;28;20968;-75
2021/01/04 05:50:43;;;;;;;17.10;12.20;;;4.00;88.40;;;;;;8306333;28;21442;-75
2021/01/04 05:54:44;;;;;;;17.63;11.87;;;4.00;88.30;;;;;;8317091;28;20463;-75
2021/01/04 05:58:45;;;;;;;20.10;12.83;;;4.00;88.40;;;;;;8297601;28;20466;-75
2021/01/04 06:02:46;;;;;;;20.80;13.17;;;4.00;88.60;;;;;;8302284;28;20459;-75
2021/01/04 06:06:53;;;;;;;22.20;14.60;;;4.00;88.70;;;;;;8314233;28;20479;-75
2021/01/04 06:11:03;;;;;;;22.57;12.57;;;4.00;88.60;;;;;;8321259;28;20520;-75
2021/01/04 06:15:07;;;;;;;23.83;13.13;;;4.00;88.60;;;;;;8319694;28;20456;-75
2021/01/04 06:19:15;;;;;;;29.20;15.43;;;4.00;88.70;;;;;;8320238;28;20817;-75
2021/01/04 06:23:26;;;;;;;19.30;12.00;;;4.00;88.80;;;;;;8315036;28;20471;-74
2021/01/04 06:27:39;;;;;;;20.13;13.17;;;4.10;88.70;;;;;;8316234;28;20480;-74
2021/01/04 06:31:46;;;;;;;19.90;13.00;;;4.10;88.50;;;;;;8314687;28;20443;-72
2021/01/04 06:36:04;;;;;;;24.20;14.20;;;4.10;88.40;;;;;;8324231;28;20545;-74
2021/01/04 06:40:11;;;;;;;24.50;13.63;;;4.00;88.50;;;;;;8314085;28;20454;-74
2021/01/04 06:44:24;;;;;;;21.23;13.40;;;4.00;88.50;;;;;;8321009;28;20464;-74
2021/01/04 06:48:33;;;;;;;19.07;13.67;;;4.10;88.60;;;;;;8313491;28;20469;-74
2021/01/04 06:52:51;;;;;;;24.90;15.00;;;4.10;88.60;;;;;;8315942;28;20451;-75
2021/01/04 06:57:04;;;;;;;22.97;14.30;;;4.10;88.60;;;;;;8321675;28;20455;-74
2021/01/04 07:01:18;;;;;;;21.90;13.90;;;4.00;88.80;;;;;;8311434;28;20447;-73
2021/01/04 07:06:07;;;;;;;22.40;14.07;;;4.00;88.80;;;;;;8312194;28;20477;-73
2021/01/04 07:10:55;;;;;;;28.37;13.80;;;4.00;88.80;;;;;;8291971;28;20444;-73
2021/01/04 07:15:15;;;;;;;25.87;13.10;;;4.00;88.70;;;;;;8309365;28;20440;-73
2021/01/04 07:19:18;;;;;;;25.70;16.03;;;4.10;88.80;;;;;;8316739;28;20462;-74
2021/01/04 07:23:41;;;;;;;26.27;16.30;;;4.00;88.70;;;;;;8317029;28;21239;-73
2021/01/04 07:27:50;;;;;;;18.83;14.30;;;4.00;88.50;;;;;;8307448;28;20939;-74
2021/01/04 07:32:20;;;;;;;21.07;13.90;;;4.00;88.60;;;;;;8316150;28;20440;-74
2021/01/04 07:36:51;;;;;;;22.67;14.40;;;4.00;88.50;;;;;;8311107;28;20446;-73
2021/01/04 07:41:24;;;;;;;20.13;13.87;;;4.00;88.30;;;;;;8319470;28;21146;-74
2021/01/04 07:45:29;;;;;;;22.53;14.33;;;3.90;88.20;;;;;;8312656;28;20485;-73
2021/01/04 07:49:56;;;;;;;24.20;15.20;;;3.90;88.90;;;;;;8326662;28;20488;-75
2021/01/04 07:54:14;;;;;;;23.80;15.03;;;3.90;88.60;;;;;;8318827;28;20454;-74
2021/01/04 07:58:45;;;;;;;23.23;15.20;;;3.90;88.80;;;;;;8318851;28;20455;-74
2021/01/04 08:03:23;;;;;;;36.80;20.40;;;4.00;89.20;;;;;;8318475;28;20452;-73
2021/01/04 08:07:45;;;;;;;23.67;15.10;;;4.10;89.30;;;;;;8315074;28;20440;-73
2021/01/04 08:12:15;;;;;;;25.60;13.60;;;4.10;89.20;;;;;;8322257;28;20795;-73
2021/01/04 08:16:25;;;;;;;17.83;13.23;;;4.20;89.20;;;;;;8318023;28;20451;-74
2021/01/04 08:20:31;;;;;;;20.10;12.50;;;4.20;89.00;;;;;;8318975;28;20457;-73
2021/01/04 08:24:43;;;;;;;29.13;17.50;;;4.30;89.00;;;;;;8317740;28;20468;-73
2021/01/04 08:28:50;;;;;;;32.63;20.73;;;4.30;89.00;;;;;;8314497;28;20449;-73
2021/01/04 08:33:12;;;;;;;23.27;15.07;;;4.40;88.80;;;;;;8336085;28;20437;-73
2021/01/04 08:37:18;;;;;;;21.60;11.87;;;4.40;88.50;;;;;;8325014;28;20439;-73
2021/01/04 08:41:28;;;;;;;19.80;13.23;;;4.40;88.20;;;;;;8318980;28;20478;-73
2021/01/04 08:45:38;;;;;;;18.97;13.97;;;4.40;88.20;;;;;;8321573;28;20475;-74
2021/01/04 08:49:42;;;;;;;24.60;12.60;;;4.40;88.00;;;;;;8331051;28;20477;-74
2021/01/04 08:54:03;;;;;;;20.57;12.90;;;4.40;87.70;;;;;;8315526;28;20428;-75
2021/01/04 08:58:20;;;;;;;18.47;12.37;;;4.50;87.80;;;;;;8321882;28;20482;-73
2021/01/04 09:02:39;;;;;;;17.43;12.70;;;4.50;88.00;;;;;;8321004;28;20444;-74
2021/01/04 09:06:53;;;;;;;17.27;12.37;;;4.50;87.60;;;;;;8317219;28;20445;-74
2021/01/04 09:11:06;;;;;;;19.20;12.10;;;4.60;87.70;;;;;;8322535;28;20499;-74
2021/01/04 09:15:27;;;;;;;17.70;12.47;;;4.70;87.80;;;;;;8303773;28;20453;-73
2021/01/04 09:19:41;;;;;;;15.77;10.40;;;4.70;87.50;;;;;;8320963;28;20954;-74
2021/01/04 09:23:46;;;;;;;16.20;10.90;;;4.80;87.30;;;;;;8317218;28;20495;-74
2021/01/04 09:27:53;;;;;;;13.30;10.10;;;4.80;87.30;;;;;;8311582;28;20963;-74
2021/01/04 09:32:13;;;;;;;17.00;10.60;;;4.80;87.20;;;;;;8301471;28;20449;-73
2021/01/04 09:36:15;;;;;;;16.50;9.90;;;4.90;87.20;;;;;;8314618;28;20442;-73
2021/01/04 09:40:21;;;;;;;12.53;9.97;;;4.90;86.90;;;;;;8307503;28;20441;-73
2021/01/04 09:44:23;;;;;;;22.30;10.77;;;4.90;86.90;;;;;;8304730;28;20512;-73
2021/01/04 09:48:37;;;;;;;16.13;10.30;;;5.00;87.00;;;;;;8310884;28;20437;-74
2021/01/04 09:53:03;;;;;;;13.63;11.33;;;5.10;87.00;;;;;;8311492;28;20529;-74
2021/01/04 09:57:07;;;;;;;16.83;11.20;;;5.10;86.50;;;;;;8325265;28;20473;-74
2021/01/04 10:01:17;;;;;;;15.70;11.17;;;5.10;86.50;;;;;;8298937;28;20851;-74
2021/01/04 10:05:20;;;;;;;15.87;10.40;;;5.20;86.40;;;;;;8324862;28;20468;-74
2021/01/04 10:09:23;;;;;;;20.83;11.40;;;5.20;86.10;;;;;;8326228;28;20516;-73
2021/01/04 10:13:25;;;;;;;12.00;10.00;;;5.20;86.00;;;;;;8334617;28;20465;-74
2021/01/04 10:17:44;;;;;;;15.07;10.60;;;5.20;85.40;;;;;;8341491;28;20506;-74
2021/01/04 10:22:14;;;;;;;16.33;11.17;;;5.20;85.50;;;;;;8333340;28;20503;-74
2021/01/04 10:26:19;;;;;;;11.80;9.97;;;5.20;85.40;;;;;;8331570;28;20480;-74
2021/01/04 10:30:25;;;;;;;16.40;11.17;;;5.20;85.70;;;;;;8335603;28;20456;-74
2021/01/04 10:34:38;;;;;;;11.87;9.60;;;5.30;85.30;;;;;;8339215;28;20507;-74
2021/01/04 10:38:44;;;;;;;11.00;8.90;;;5.30;85.30;;;;;;8331489;28;20449;-74
2021/01/04 10:42:48;;;;;;;17.37;10.50;;;5.30;84.90;;;;;;8330593;28;20489;-73
2021/01/04 10:47:18;;;;;;;13.40;9.17;;;5.40;84.90;;;;;;8322170;28;20923;-73
2021/01/04 10:51:25;;;;;;;14.00;10.60;;;5.30;84.70;;;;;;8314642;28;20571;-76
2021/01/04 10:55:30;;;;;;;17.60;12.00;;;5.40;84.70;;;;;;8316353;28;20472;-75
2021/01/04 11:00:03;;;;;;;19.80;12.17;;;5.40;84.70;;;;;;8312820;28;20465;-75
2021/01/04 11:04:12;;;;;;;12.90;9.50;;;5.40;84.80;;;;;;8320296;28;21032;-74
2021/01/04 11:08:31;;;;;;;14.83;11.37;;;5.40;84.70;;;;;;8313418;28;20454;-74
2021/01/04 11:12:47;;;;;;;14.90;10.03;;;5.40;84.40;;;;;;8317367;28;20445;-75
2021/01/04 11:16:50;;;;;;;13.23;9.63;;;5.40;84.10;;;;;;8318171;28;20545;-74
2021/01/04 11:20:51;;;;;;;12.47;9.83;;;5.30;83.70;;;;;;8319363;28;21234;-73
2021/01/04 11:24:57;;;;;;;16.07;10.70;;;5.30;84.20;;;;;;8296720;28;21001;-74
2021/01/04 11:28:59;;;;;;;13.10;9.47;;;5.30;84.50;;;;;;8310889;28;20447;-74
2021/01/04 11:33:07;;;;;;;13.07;11.53;;;5.40;84.70;;;;;;8300308;28;20481;-74
2021/01/04 11:37:08;;;;;;;13.40;9.30;;;5.40;83.60;;;;;;8324700;28;20453;-74
2021/01/04 11:41:11;;;;;;;13.67;8.93;;;5.40;83.40;;;;;;8315267;28;20470;-74
2021/01/04 11:45:17;;;;;;;12.77;10.07;;;5.40;82.90;;;;;;8328517;28;20482;-74
2021/01/04 11:49:17;;;;;;;14.60;9.80;;;5.30;83.00;;;;;;8323546;28;20542;-74
2021/01/04 11:53:18;;;;;;;16.63;10.27;;;5.30;82.90;;;;;;8301280;28;20517;-75
2021/01/04 11:57:19;;;;;;;13.20;10.10;;;5.30;83.00;;;;;;8312301;28;20238;-75
2021/01/04 12:01:26;;;;;;;14.63;11.03;;;5.30;83.20;;;;;;8316936;28;20226;-74
2021/01/04 12:05:35;;;;;;;12.87;8.60;;;5.40;83.70;;;;;;8319427;28;20477;-74
2021/01/04 12:09:35;;;;;;;13.70;9.30;;;5.40;82.70;;;;;;8297594;28;20453;-74
2021/01/04 12:13:44;;;;;;;13.73;9.93;;;5.40;82.50;;;;;;8316772;28;20787;-74
2021/01/04 12:17:52;;;;;;;15.10;9.73;;;5.40;82.70;;;;;;8322289;28;20450;-75
2021/01/04 12:21:58;;;;;;;12.13;9.10;;;5.40;82.70;;;;;;8306019;28;20451;-75
2021/01/04 12:26:03;;;;;;;13.10;10.20;;;5.40;82.40;;;;;;8319096;28;20502;-74
2021/01/04 12:30:05;;;;;;;13.17;10.63;;;5.30;82.50;;;;;;8306653;28;20515;-75
2021/01/04 12:34:12;;;;;;;13.83;10.03;;;5.40;82.90;;;;;;8323799;28;20453;-75
2021/01/04 12:38:13;;;;;;;14.37;9.03;;;5.40;82.60;;;;;;8302439;28;20470;-75
2021/01/04 12:42:13;;;;;;;16.33;10.97;;;5.40;82.70;;;;;;8314178;28;20453;-75
2021/01/04 12:46:17;;;;;;;15.33;9.97;;;5.40;82.90;;;;;;8321887;28;20261;-76
2021/01/04 12:50:20;;;;;;;13.90;10.30;;;5.40;83.40;;;;;;8307746;28;20247;-74
2021/01/04 12:54:26;;;;;;;16.23;10.73;;;5.40;83.30;;;;;;8313521;28;20442;-74
2021/01/04 12:58:29;;;;;;;17.40;12.63;;;5.40;83.10;;;;;;8309959;28;20462;-74
2021/01/04 13:02:32;;;;;;;15.10;11.30;;;5.40;82.80;;;;;;8312623;28;21045;-74
2021/01/04 13:06:33;;;;;;;18.33;10.90;;;5.40;82.90;;;;;;8308212;28;20492;-74
2021/01/04 13:10:35;;;;;;;17.97;11.60;;;5.40;82.70;;;;;;8316316;28;20445;-75
2021/01/04 13:14:36;;;;;;;16.27;11.13;;;5.40;82.70;;;;;;8325458;28;20507;-73
2021/01/04 13:18:37;;;;;;;16.70;11.53;;;5.40;82.30;;;;;;8329788;28;20451;-75
2021/01/04 13:22:46;;;;;;;20.03;12.53;;;5.30;82.40;;;;;;8314154;28;20465;-75
2021/01/04 13:26:50;;;;;;;15.93;11.37;;;5.30;82.50;;;;;;8329617;28;20986;-76
2021/01/04 13:30:50;;;;;;;18.00;12.67;;;5.30;82.50;;;;;;8332561;28;20471;-74
2021/01/04 13:34:51;;;;;;;19.40;12.83;;;5.30;82.80;;;;;;8335207;28;20475;-75
2021/01/04 13:38:58;;;;;;;20.30;12.00;;;5.40;83.00;;;;;;8319846;28;20919;-76
2021/01/04 13:43:05;;;;;;;24.00;13.70;;;5.40;83.00;;;;;;8334242;28;20202;-74
2021/01/04 13:47:08;;;;;;;18.57;12.50;;;5.40;82.80;;;;;;8334550;28;20466;-75
2021/01/04 13:51:11;;;;;;;16.57;11.80;;;5.40;83.00;;;;;;8333363;28;20457;-74
2021/01/04 13:55:18;;;;;;;21.90;13.80;;;5.40;82.80;;;;;;8331790;28;20533;-76
2021/01/04 13:59:28;;;;;;;22.30;14.33;;;5.40;82.60;;;;;;8335318;28;20530;-75
2021/01/04 14:03:33;;;;;;;21.33;13.87;;;5.40;82.50;;;;;;8297654;28;20908;-75
2021/01/04 14:07:36;;;;;;;23.70;15.23;;;5.40;82.50;;;;;;8333409;28;20556;-75
2021/01/04 14:11:37;;;;;;;19.77;14.70;;;5.40;82.80;;;;;;8312884;28;20795;-75
2021/01/04 14:15:43;;;;;;;22.90;13.80;;;5.40;83.00;;;;;;8304510;28;20462;-74
2021/01/04 14:19:57;;;;;;;23.50;13.63;;;5.40;83.00;;;;;;8311744;28;21013;-74
2021/01/04 14:24:07;;;;;;;18.63;11.70;;;5.40;83.10;;;;;;8314115;28;20470;-74
2021/01/04 14:28:08;;;;;;;21.00;13.40;;;5.40;83.20;;;;;;8310571;28;20494;-75
2021/01/04 14:32:15;;;;;;;21.03;13.03;;;5.40;83.10;;;;;;8308904;28;20529;-74
2021/01/04 14:36:18;;;;;;;22.20;14.77;;;5.30;82.80;;;;;;8317053;28;20514;-75
2021/01/04 14:40:19;;;;;;;22.80;13.63;;;5.30;83.20;;;;;;8313301;28;20457;-75
2021/01/04 14:44:21;;;;;;;22.43;14.10;;;5.30;83.30;;;;;;8317463;28;20480;-75
2021/01/04 14:48:29;;;;;;;21.70;13.00;;;5.30;83.40;;;;;;8316804;28;20441;-75
2021/01/04 14:52:33;;;;;;;19.93;12.57;;;5.30;83.20;;;;;;8316493;28;20456;-74
2021/01/04 14:56:39;;;;;;;21.33;12.80;;;5.30;83.30;;;;;;8314694;28;20949;-74
2021/01/04 15:00:41;;;;;;;24.90;14.23;;;5.30;83.40;;;;;;8307137;28;20788;-75
2021/01/04 15:04:48;;;;;;;18.10;12.90;;;5.30;83.60;;;;;;8325240;28;20875;-75
2021/01/04 15:08:49;;;;;;;21.23;13.87;;;5.30;83.60;;;;;;8317708;28;20496;-75
2021/01/04 15:12:52;;;;;;;21.43;13.87;;;5.30;83.70;;;;;;8314989;28;20445;-74
2021/01/04 15:17:05;;;;;;;20.00;14.60;;;5.30;83.70;;;;;;8320639;28;20453;-74
2021/01/04 15:21:06;;;;;;;17.67;11.40;;;5.30;83.70;;;;;;8333974;28;20450;-74
2021/01/04 15:25:08;;;;;;;20.30;14.17;;;5.20;83.50;;;;;;8319236;28;20515;-75
2021/01/04 15:29:16;;;;;;;23.30;14.17;;;5.30;83.90;;;;;;8333265;28;20734;-74
2021/01/04 15:33:22;;;;;;;19.33;12.77;;;5.20;83.60;;;;;;8334984;28;20546;-75
2021/01/04 15:37:23;;;;;;;18.53;13.20;;;5.20;83.70;;;;;;8339702;28;20441;-76
2021/01/04 15:41:26;;;;;;;22.10;12.90;;;5.20;84.00;;;;;;8340688;28;20460;-74
2021/01/04 15:45:28;;;;;;;22.00;13.30;;;5.30;84.00;;;;;;8340751;28;21084;-74
2021/01/04 15:49:29;;;;;;;19.90;15.77;;;5.20;83.90;;;;;;8342071;28;20560;-75
2021/01/04 15:53:41;;;;;;;20.10;13.63;;;5.20;83.70;;;;;;8336797;28;20460;-76
2021/01/04 15:57:42;;;;;;;19.93;14.17;;;5.20;83.50;;;;;;8305463;28;20814;-75
2021/01/04 16:01:51;;;;;;;17.95;12.98;;;5.20;83.50;;;;;;8329577;28;20953;-75
2021/01/04 16:05:58;;;;;;;19.43;13.90;;;5.20;83.70;;;;;;8340127;28;20309;-74
2021/01/04 16:10:00;;;;;;;21.13;14.40;;;5.20;83.40;;;;;;8322231;28;20468;-75
2021/01/04 16:14:02;;;;;;;15.67;10.67;;;5.20;83.00;;;;;;8319727;28;20900;-74
2021/01/04 16:18:03;;;;;;;18.60;13.70;;;5.20;83.10;;;;;;8324382;28;20606;-74
2021/01/04 16:22:08;;;;;;;18.53;12.23;;;5.10;83.60;;;;;;8333275;28;20452;-75
2021/01/04 16:26:11;;;;;;;17.10;13.37;;;5.10;82.70;;;;;;8335178;28;20485;-74
2021/01/04 16:30:17;;;;;;;18.57;12.33;;;5.10;82.70;;;;;;8337586;28;20472;-74
2021/01/04 16:34:22;;;;;;;20.47;13.07;;;5.10;83.00;;;;;;8329957;28;20949;-74
2021/01/04 16:38:31;;;;;;;26.93;12.60;;;5.10;82.90;;;;;;8335522;28;20522;-74
2021/01/04 16:42:33;;;;;;;22.50;14.30;;;5.10;82.90;;;;;;8332937;28;20457;-74
2021/01/04 16:46:37;;;;;;;21.70;12.70;;;5.10;83.10;;;;;;8333227;28;20887;-74
2021/01/04 16:50:39;;;;;;;18.70;13.20;;;5.10;83.10;;;;;;8337324;28;20817;-74
2021/01/04 16:54:47;;;;;;;22.07;13.23;;;5.10;83.10;;;;;;8334896;28;20956;-76
2021/01/04 16:59:03;;;;;;;16.77;11.63;;;5.10;83.30;;;;;;8337108;28;20472;-74
2021/01/04 17:03:10;;;;;;;18.10;12.10;;;5.10;83.20;;;;;;8336597;28;20554;-75
2021/01/04 17:07:14;;;;;;;17.37;12.83;;;5.10;83.20;;;;;;8328744;28;20465;-75
2021/01/04 17:11:25;;;;;;;17.13;11.30;;;5.10;83.10;;;;;;8337285;28;20579;-75
2021/01/04 17:15:34;;;;;;;16.70;12.13;;;5.10;83.80;;;;;;8335884;28;20461;-74
2021/01/04 17:19:36;;;;;;;18.57;12.50;;;5.10;83.00;;;;;;8320809;28;20476;-75
2021/01/04 17:23:40;;;;;;;18.03;12.37;;;5.10;82.80;;;;;;8325552;28;20555;-75
2021/01/04 17:27:45;;;;;;;18.10;11.77;;;5.10;82.50;;;;;;8330198;28;20450;-73
2021/01/04 17:31:46;;;;;;;17.60;12.17;;;5.00;82.70;;;;;;8305344;28;20446;-75
2021/01/04 17:35:49;;;;;;;16.40;10.60;;;5.00;82.70;;;;;;8306384;28;20911;-75
2021/01/04 17:39:50;;;;;;;17.03;12.33;;;5.00;82.80;;;;;;8293593;28;20466;-75
2021/01/04 17:43:51;;;;;;;15.27;11.33;;;5.00;83.00;;;;;;8299080;28;21036;-75
2021/01/04 17:47:53;;;;;;;13.87;10.63;;;5.00;83.10;;;;;;8322904;28;21260;-75
2021/01/04 17:51:55;;;;;;;14.73;11.20;;;5.00;83.10;;;;;;8304747;28;20223;-74
2021/01/04 17:56:00;;;;;;;18.17;11.20;;;5.00;83.10;;;;;;8298674;28;20942;-75
2021/01/04 18:00:08;;;;;;;15.93;11.53;;;5.00;83.00;;;;;;8311687;28;20472;-75
2021/01/04 18:04:17;;;;;;;15.87;11.27;;;5.00;82.90;;;;;;8319211;28;20466;-74
2021/01/04 18:08:26;;;;;;;16.30;11.63;;;4.90;83.10;;;;;;8317847;28;20521;-74
2021/01/04 18:12:41;;;;;;;14.13;10.70;;;5.00;83.30;;;;;;8306612;28;20449;-74
2021/01/04 18:16:47;;;;;;;15.93;10.90;;;4.90;83.10;;;;;;8326158;28;21105;-74
2021/01/04 18:20:55;;;;;;;16.13;11.33;;;4.90;82.90;;;;;;8324892;28;20452;-75
2021/01/04 18:24:57;;;;;;;19.37;11.50;;;4.90;82.70;;;;;;8319914;28;20480;-74
2021/01/04 18:29:02;;;;;;;15.17;11.80;;;4.90;83.00;;;;;;8317896;28;20488;-75
2021/01/04 18:33:14;;;;;;;14.10;11.23;;;5.00;83.00;;;;;;8313128;28;21154;-75
2021/01/04 18:37:15;;;;;;;13.80;9.80;;;5.00;83.20;;;;;;8334896;28;20445;-75
2021/01/04 18:41:20;;;;;;;14.77;11.23;;;5.00;83.00;;;;;;8313526;28;20449;-74
2021/01/04 18:45:21;;;;;;;15.20;10.77;;;5.00;82.90;;;;;;8318507;28;20216;-74
2021/01/04 18:49:25;;;;;;;17.77;11.90;;;5.00;82.80;;;;;;8312313;28;20459;-73
2021/01/04 18:53:29;;;;;;;15.43;11.20;;;4.90;82.50;;;;;;8315815;28;20475;-74
2021/01/04 18:57:36;;;;;;;19.17;12.73;;;4.90;82.70;;;;;;8317640;28;20209;-74
2021/01/04 19:01:37;;;;;;;19.77;12.60;;;4.90;82.80;;;;;;8286967;28;20466;-75
2021/01/04 19:05:43;;;;;;;20.20;12.63;;;4.90;82.70;;;;;;8310118;28;20488;-74
2021/01/04 19:09:55;;;;;;;16.23;10.97;;;4.90;83.00;;;;;;8306946;28;20458;-74
2021/01/04 19:14:00;;;;;;;14.33;11.60;;;4.90;82.80;;;;;;8309809;28;20461;-72
2021/01/04 19:18:02;;;;;;;18.43;12.73;;;4.90;82.70;;;;;;8319107;28;20471;-75
2021/01/04 19:22:10;;;;;;;18.67;12.87;;;4.90;82.90;;;;;;8293505;28;20461;-74
2021/01/04 19:26:22;;;;;;;19.63;13.57;;;4.90;83.10;;;;;;8319132;28;20816;-73
2021/01/04 19:30:32;;;;;;;18.60;13.10;;;4.90;83.00;;;;;;8310210;28;20450;-73
2021/01/04 19:34:51;;;;;;;18.73;13.60;;;4.90;83.00;;;;;;8309325;28;20436;-73
2021/01/04 19:38:53;;;;;;;20.70;13.60;;;4.90;83.20;;;;;;8317480;28;20523;-73
2021/01/04 19:42:56;;;;;;;20.53;13.70;;;4.90;82.80;;;;;;8293253;28;20969;-75
2021/01/04 19:46:59;;;;;;;17.60;13.33;;;4.90;82.90;;;;;;8305645;28;20472;-74
2021/01/04 19:50:59;;;;;;;17.43;11.90;;;4.90;83.00;;;;;;8309044;28;21078;-75
2021/01/04 19:55:04;;;;;;;19.40;12.60;;;4.90;83.10;;;;;;8303841;28;21053;-74
2021/01/04 19:59:06;;;;;;;18.40;11.20;;;4.90;82.80;;;;;;8313208;28;20202;-74
2021/01/04 20:03:11;;;;;;;18.40;12.93;;;4.90;82.80;;;;;;8307670;28;20453;-74
2021/01/04 20:07:15;;;;;;;18.47;11.87;;;4.90;83.10;;;;;;8303996;28;20449;-74
2021/01/04 20:11:17;;;;;;;16.33;11.87;;;4.90;83.20;;;;;;8307099;28;20450;-74
2021/01/04 20:15:26;;;;;;;17.70;12.30;;;4.90;83.00;;;;;;8310570;28;20480;-74
2021/01/04 20:19:29;;;;;;;18.63;12.60;;;4.90;83.30;;;;;;8308654;28;20485;-74
2021/01/04 20:23:30;;;;;;;20.47;13.07;;;4.90;83.30;;;;;;8316285;28;20466;-73
2021/01/04 20:27:32;;;;;;;20.87;14.10;;;4.90;83.50;;;;;;8300975;28;20457;-75
2021/01/04 20:31:37;;;;;;;18.10;13.37;;;4.90;83.60;;;;;;8313983;28;20198;-74
2021/01/04 20:35:41;;;;;;;18.20;11.50;;;4.90;83.30;;;;;;8305897;28;20519;-73
2021/01/04 20:39:42;;;;;;;19.17;14.33;;;5.00;83.40;;;;;;8317809;28;20457;-74
2021/01/04 20:43:47;;;;;;;23.50;13.43;;;4.90;83.30;;;;;;8309120;28;20465;-74
2021/01/04 20:47:54;;;;;;;18.70;13.10;;;4.90;83.50;;;;;;8312895;28;20451;-74
2021/01/04 20:51:59;;;;;;;25.23;15.27;;;4.80;83.60;;;;;;8307098;28;20485;-74
2021/01/04 20:56:03;;;;;;;23.63;13.70;;;4.80;83.60;;;;;;8299268;28;20459;-75
2021/01/04 21:00:11;;;;;;;20.80;13.73;;;4.80;83.70;;;;;;8305910;28;20463;-73
2021/01/04 21:04:17;;;;;;;19.73;12.43;;;4.80;83.40;;;;;;8308411;28;20528;-74
2021/01/04 21:08:27;;;;;;;24.57;13.40;;;4.80;83.60;;;;;;8308473;28;20469;-73
2021/01/04 21:12:29;;;;;;;16.97;12.57;;;4.80;83.50;;;;;;8307226;28;20964;-74
2021/01/04 21:16:33;;;;;;;19.80;13.00;;;4.80;83.40;;;;;;8309124;28;20544;-73
2021/01/04 21:20:36;;;;;;;16.17;13.73;;;4.80;83.40;;;;;;8306792;28;21331;-74
2021/01/04 21:24:37;;;;;;;25.07;14.60;;;4.80;83.40;;;;;;8314688;28;21008;-74